Time;durP1;ratioP1;P1;durP2;ratioP2;P2;SDS_P1;SDS_P2;PMS_P1;PMS_P2;Temp;Humidity;BMP_temperature;BMP_pressure;BME280_temperature;BME280_humidity;BME280_pressure;Samples;Min_cycle;Max_cycle;Signal;HPM_P1;HPM_P2
2023/07/21 00:03:10;;;;;;;12.15;9.32;;;14.30;99.90;;;;;;7279717;32;20112;-56
2023/07/21 00:07:11;;;;;;;9.52;8.48;;;14.20;99.90;;;;;;7291823;32;20775;-57
2023/07/21 00:11:13;;;;;;;12.48;10.63;;;14.20;99.90;;;;;;7291814;32;20112;-57
2023/07/21 00:15:17;;;;;;;9.95;8.95;;;14.10;99.90;;;;;;7285120;32;20120;-56
2023/07/21 00:19:20;;;;;;;10.73;9.73;;;14.00;99.90;;;;;;7290611;32;20104;-57
2023/07/21 00:23:26;;;;;;;9.88;8.88;;;14.00;99.90;;;;;;7285237;32;20512;-56
2023/07/21 00:27:28;;;;;;;11.65;10.50;;;13.90;99.90;;;;;;7284914;32;20203;-56
2023/07/21 00:31:35;;;;;;;10.18;9.27;;;13.80;99.90;;;;;;7281655;32;20140;-57
2023/07/21 00:35:37;;;;;;;13.88;9.70;;;13.80;99.90;;;;;;7293355;32;20112;-57
2023/07/21 00:39:39;;;;;;;16.80;12.05;;;13.80;99.90;;;;;;7291789;32;20207;-56
2023/07/21 00:43:40;;;;;;;10.88;9.77;;;13.70;99.90;;;;;;7289556;32;20104;-56
2023/07/21 00:47:43;;;;;;;11.18;10.07;;;13.60;99.90;;;;;;7289663;32;20147;-57
2023/07/21 00:51:45;;;;;;;11.45;9.68;;;13.60;99.90;;;;;;7288979;32;20111;-56
2023/07/21 00:55:48;;;;;;;11.00;9.90;;;13.60;99.90;;;;;;7282831;32;20128;-56
2023/07/21 00:59:50;;;;;;;11.73;10.63;;;13.50;99.90;;;;;;7285818;32;20258;-56
2023/07/21 01:03:52;;;;;;;10.65;9.65;;;13.40;99.90;;;;;;7299662;32;20136;-56
2023/07/21 01:07:55;;;;;;;11.02;9.90;;;13.40;99.90;;;;;;7299264;32;20561;-56
2023/07/21 01:11:57;;;;;;;12.10;10.90;;;13.30;99.90;;;;;;7294902;32;20803;-56
2023/07/21 01:16:01;;;;;;;10.75;9.73;;;13.30;99.90;;;;;;7283394;32;20176;-56
2023/07/21 01:20:04;;;;;;;11.35;10.30;;;13.30;99.90;;;;;;7286603;32;20151;-56
2023/07/21 01:24:12;;;;;;;11.77;10.68;;;13.30;99.90;;;;;;7284637;32;20152;-56
2023/07/21 01:28:15;;;;;;;11.38;10.13;;;13.40;99.90;;;;;;7282845;32;20157;-56
2023/07/21 01:32:21;;;;;;;11.48;9.60;;;13.30;99.90;;;;;;7288861;32;20286;-56
2023/07/21 01:36:23;;;;;;;9.95;9.05;;;13.30;99.90;;;;;;7306797;32;20112;-56
2023/07/21 01:40:26;;;;;;;12.27;11.02;;;13.30;99.90;;;;;;7290292;32;20161;-57
2023/07/21 01:44:28;;;;;;;11.57;9.95;;;13.20;99.90;;;;;;7281265;32;20120;-56
2023/07/21 01:48:29;;;;;;;10.57;9.43;;;13.20;99.90;;;;;;7282096;32;20593;-56
2023/07/21 01:52:34;;;;;;;9.98;8.77;;;13.20;99.90;;;;;;7282369;32;20505;-57
2023/07/21 01:56:44;;;;;;;10.38;9.38;;;13.20;99.90;;;;;;7281675;32;20134;-57
2023/07/21 02:00:47;;;;;;;11.70;9.82;;;13.10;99.90;;;;;;7285838;32;20104;-57
2023/07/21 02:04:53;;;;;;;11.35;10.20;;;13.20;99.90;;;;;;7293975;32;20162;-55
2023/07/21 02:08:54;;;;;;;10.55;9.50;;;13.20;99.90;;;;;;7292575;32;20112;-56
2023/07/21 02:12:56;;;;;;;12.68;11.15;;;13.10;99.90;;;;;;7284371;32;20187;-56
2023/07/21 02:16:58;;;;;;;11.85;10.68;;;13.10;99.90;;;;;;7286297;32;20120;-57
2023/07/21 02:21:04;;;;;;;11.93;10.73;;;13.10;99.90;;;;;;7292109;32;20143;-56
2023/07/21 02:25:09;;;;;;;13.10;11.73;;;13.20;99.90;;;;;;7287116;32;20106;-57
2023/07/21 02:29:10;;;;;;;12.52;11.05;;;13.10;99.90;;;;;;7287520;32;20124;-56
2023/07/21 02:33:12;;;;;;;12.73;11.10;;;13.10;99.90;;;;;;7284404;32;20195;-56
2023/07/21 02:37:14;;;;;;;10.95;9.85;;;13.10;99.90;;;;;;7280518;32;20108;-56
2023/07/21 02:41:16;;;;;;;13.27;11.35;;;13.10;99.90;;;;;;7296065;32;20127;-56
2023/07/21 02:45:17;;;;;;;15.13;10.88;;;13.10;99.90;;;;;;7288474;32;20549;-57
2023/07/21 02:49:19;;;;;;;13.13;10.40;;;13.20;99.90;;;;;;7280848;32;20207;-56
2023/07/21 02:53:21;;;;;;;12.63;10.35;;;13.10;99.90;;;;;;7280012;32;20200;-56
2023/07/21 02:57:23;;;;;;;14.87;10.55;;;13.10;99.90;;;;;;7267033;32;20506;-56
2023/07/21 03:01:25;;;;;;;12.07;10.75;;;13.10;99.90;;;;;;7285733;32;20131;-56
2023/07/21 03:05:29;;;;;;;11.85;10.68;;;13.00;99.90;;;;;;7283412;32;20174;-57
2023/07/21 03:09:31;;;;;;;13.40;10.45;;;13.00;99.90;;;;;;7286354;32;20618;-56
2023/07/21 03:13:33;;;;;;;12.48;10.73;;;13.00;99.90;;;;;;7292249;32;20136;-56
2023/07/21 03:17:35;;;;;;;14.02;9.98;;;12.90;99.90;;;;;;7288331;32;20180;-56
2023/07/21 03:21:37;;;;;;;11.00;10.00;;;12.90;99.90;;;;;;7285651;32;20481;-56
2023/07/21 03:25:47;;;;;;;11.52;10.30;;;12.80;99.90;;;;;;7279960;32;20112;-56
2023/07/21 03:29:51;;;;;;;12.13;9.82;;;12.90;99.90;;;;;;7293077;32;20166;-56
2023/07/21 03:33:53;;;;;;;10.30;9.30;;;12.90;99.90;;;;;;7296512;32;20145;-56
2023/07/21 03:37:57;;;;;;;11.75;9.85;;;12.90;99.90;;;;;;7290372;32;20112;-56
2023/07/21 03:41:59;;;;;;;13.85;11.57;;;12.90;99.90;;;;;;7297104;32;20555;-56
2023/07/21 03:46:02;;;;;;;14.52;11.40;;;12.80;99.90;;;;;;7270888;32;20146;-56
2023/07/21 03:50:05;;;;;;;13.18;10.38;;;12.80;99.90;;;;;;7288256;32;20107;-56
2023/07/21 03:54:07;;;;;;;12.10;10.50;;;12.80;99.90;;;;;;7303765;32;20232;-56
2023/07/21 03:58:09;;;;;;;11.52;9.85;;;12.80;99.90;;;;;;7283163;32;20181;-56
2023/07/21 04:02:11;;;;;;;11.48;9.63;;;12.70;99.90;;;;;;7285101;32;20191;-56
2023/07/21 04:06:14;;;;;;;12.23;9.82;;;12.70;99.90;;;;;;7294401;32;20540;-57
2023/07/21 04:10:16;;;;;;;16.20;9.48;;;12.80;99.90;;;;;;7290369;32;20308;-56
2023/07/21 04:14:18;;;;;;;15.90;10.77;;;12.70;99.90;;;;;;7287663;32;20116;-56
2023/07/21 04:18:20;;;;;;;15.35;11.20;;;12.60;99.90;;;;;;7288915;32;21039;-56
2023/07/21 04:22:22;;;;;;;16.95;11.30;;;12.50;99.90;;;;;;7288082;32;20154;-55
2023/07/21 04:26:24;;;;;;;14.50;10.70;;;12.70;99.90;;;;;;7287604;32;20120;-56
2023/07/21 04:30:28;;;;;;;13.62;11.90;;;12.60;99.90;;;;;;7287974;32;20216;-56
2023/07/21 04:34:30;;;;;;;14.30;10.82;;;12.70;99.90;;;;;;7283409;32;20187;-56
2023/07/21 04:38:32;;;;;;;15.98;12.25;;;12.70;99.90;;;;;;7289877;32;20116;-55
2023/07/21 04:42:34;;;;;;;18.37;12.20;;;12.80;99.90;;;;;;7286700;32;20639;-56
2023/07/21 04:46:35;;;;;;;13.45;11.95;;;12.90;99.90;;;;;;7289674;32;20120;-56
2023/07/21 04:50:37;;;;;;;12.80;11.50;;;13.00;99.90;;;;;;7295205;32;20108;-57
2023/07/21 04:54:39;;;;;;;11.95;10.65;;;13.00;99.90;;;;;;7290911;32;20135;-57
2023/07/21 04:58:41;;;;;;;16.45;12.15;;;13.10;99.90;;;;;;7290051;32;20250;-56
2023/07/21 05:02:43;;;;;;;15.73;12.70;;;13.20;99.90;;;;;;7291392;32;20399;-57
2023/07/21 05:06:46;;;;;;;15.32;13.80;;;13.20;99.90;;;;;;7278127;32;20127;-57
2023/07/21 05:10:48;;;;;;;18.52;13.70;;;13.30;99.90;;;;;;7287360;32;20464;-57
2023/07/21 05:14:49;;;;;;;22.83;16.05;;;13.50;99.90;;;;;;7284715;32;20210;-57
2023/07/21 05:18:51;;;;;;;18.12;16.20;;;13.80;99.90;;;;;;7286930;32;20513;-58
2023/07/21 05:22:53;;;;;;;21.42;16.90;;;14.10;99.90;;;;;;7282017;32;20108;-58
2023/07/21 05:26:56;;;;;;;18.10;15.45;;;14.50;99.90;;;;;;7278562;32;20217;-57
2023/07/21 05:30:57;;;;;;;18.33;15.30;;;14.90;99.90;;;;;;7287966;32;20162;-58
2023/07/21 05:34:59;;;;;;;20.37;14.87;;;15.00;99.90;;;;;;7291781;32;20183;-58
2023/07/21 05:39:01;;;;;;;18.58;13.52;;;15.20;99.90;;;;;;7288366;32;20225;-58
2023/07/21 05:43:03;;;;;;;15.40;13.85;;;15.60;99.90;;;;;;7283596;32;20112;-57
2023/07/21 05:47:05;;;;;;;16.58;14.27;;;15.70;99.90;;;;;;7288687;32;20183;-58
2023/07/21 05:51:13;;;;;;;18.05;15.15;;;15.80;99.90;;;;;;7298355;32;20115;-58
2023/07/21 05:55:16;;;;;;;16.48;14.00;;;16.00;99.90;;;;;;7287587;32;20134;-57
2023/07/21 05:59:18;;;;;;;15.20;13.65;;;15.90;99.90;;;;;;7293417;32;20505;-57
2023/07/21 06:03:20;;;;;;;17.40;15.70;;;16.00;99.90;;;;;;7279428;32;20514;-57
2023/07/21 06:07:21;;;;;;;18.23;16.33;;;16.10;99.90;;;;;;7297258;32;20120;-57
2023/07/21 06:11:25;;;;;;;20.33;18.27;;;16.20;99.90;;;;;;7284781;32;20112;-57
2023/07/21 06:15:26;;;;;;;23.60;21.15;;;16.10;99.90;;;;;;7288042;32;20119;-57
2023/07/21 06:19:31;;;;;;;20.80;18.70;;;16.20;99.90;;;;;;7290169;32;20158;-57
2023/07/21 06:23:32;;;;;;;22.05;19.83;;;16.30;99.90;;;;;;7282965;32;20139;-57
2023/07/21 06:27:34;;;;;;;20.27;18.25;;;16.90;99.90;;;;;;7284615;32;20176;-56
2023/07/21 06:31:36;;;;;;;18.33;16.52;;;17.50;99.90;;;;;;7296939;32;20120;-56
2023/07/21 06:35:38;;;;;;;18.42;16.73;;;18.00;99.90;;;;;;7287513;32;20112;-57
2023/07/21 06:39:39;;;;;;;16.95;15.25;;;18.50;99.90;;;;;;7286967;32;20221;-58
2023/07/21 06:43:41;;;;;;;15.40;14.10;;;19.30;99.90;;;;;;7292186;32;20132;-56
2023/07/21 06:47:43;;;;;;;15.43;13.85;;;20.00;99.90;;;;;;7282849;32;20116;-57
2023/07/21 06:51:45;;;;;;;15.02;13.62;;;20.20;99.90;;;;;;7278349;32;20636;-57
2023/07/21 06:55:49;;;;;;;14.15;12.43;;;20.50;99.90;;;;;;7282704;32;20116;-57
2023/07/21 06:59:51;;;;;;;15.32;13.80;;;20.40;99.90;;;;;;7282127;32;20132;-57
2023/07/21 07:03:53;;;;;;;14.93;13.43;;;20.10;99.90;;;;;;7280845;32;20119;-57
2023/07/21 07:07:55;;;;;;;14.13;12.93;;;19.80;99.90;;;;;;7264509;32;20109;-57
2023/07/21 07:11:57;;;;;;;15.32;13.73;;;20.10;99.90;;;;;;7269561;32;20188;-57
2023/07/21 07:15:58;;;;;;;15.40;14.10;;;20.80;99.90;;;;;;7273589;32;20172;-57
2023/07/21 07:20:01;;;;;;;13.82;12.63;;;20.80;99.90;;;;;;7279212;32;20225;-57
2023/07/21 07:24:02;;;;;;;14.80;13.50;;;20.70;99.90;;;;;;7273167;32;20108;-57
2023/07/21 07:28:04;;;;;;;14.98;13.40;;;20.70;99.90;;;;;;7272064;32;20112;-57
2023/07/21 07:32:07;;;;;;;13.30;12.02;;;20.80;99.90;;;;;;7274157;32;20193;-57
2023/07/21 07:36:10;;;;;;;14.07;12.88;;;21.10;99.90;;;;;;7284197;32;20151;-57
2023/07/21 07:40:12;;;;;;;11.05;10.05;;;20.90;99.90;;;;;;7280590;32;20130;-57
2023/07/21 07:44:14;;;;;;;11.48;10.50;;;20.20;99.90;;;;;;7265084;32;20134;-57
2023/07/21 07:48:16;;;;;;;12.05;10.85;;;19.90;99.90;;;;;;7268808;32;20225;-57
2023/07/21 07:52:18;;;;;;;11.02;9.95;;;19.60;99.90;;;;;;7285268;32;20116;-57
2023/07/21 07:56:21;;;;;;;10.10;9.02;;;19.40;99.90;;;;;;7279467;32;20416;-57
2023/07/21 08:00:23;;;;;;;5.72;5.22;;;19.30;99.90;;;;;;7272523;32;20148;-57
2023/07/21 08:04:25;;;;;;;9.55;8.55;;;19.20;99.90;;;;;;7260846;32;20309;-57
2023/07/21 08:08:28;;;;;;;9.70;8.75;;;19.50;99.90;;;;;;7272031;32;20180;-57
2023/07/21 08:12:29;;;;;;;10.25;8.93;;;19.80;99.90;;;;;;7282194;32;20166;-57
2023/07/21 08:16:31;;;;;;;10.52;9.60;;;19.90;99.90;;;;;;7281602;32;20130;-57
2023/07/21 08:20:36;;;;;;;14.90;9.40;;;20.00;99.90;;;;;;7266868;32;20160;-57
2023/07/21 08:24:38;;;;;;;10.40;9.30;;;20.00;99.90;;;;;;7284147;32;20099;-57
2023/07/21 08:28:40;;;;;;;11.77;10.23;;;20.20;99.90;;;;;;7279296;32;20199;-57
2023/07/21 08:32:42;;;;;;;10.38;9.48;;;20.50;99.90;;;;;;7286241;32;20120;-57
2023/07/21 08:36:44;;;;;;;9.73;8.73;;;20.50;99.90;;;;;;7273046;32;20600;-57
2023/07/21 08:41:02;;;;;;;8.70;7.80;;;20.40;99.90;;;;;;7290974;32;20200;-57
2023/07/21 08:45:04;;;;;;;11.63;7.32;;;20.40;99.90;;;;;;7272519;32;20159;-56
2023/07/21 08:49:07;;;;;;;7.05;6.40;;;20.50;99.90;;;;;;7290435;32;20298;-57
2023/07/21 08:53:09;;;;;;;6.45;5.68;;;20.30;99.90;;;;;;7282217;32;20163;-57
2023/07/21 08:57:14;;;;;;;8.93;5.78;;;20.20;99.90;;;;;;7285238;32;20828;-57
2023/07/21 09:01:16;;;;;;;7.60;6.05;;;20.10;99.90;;;;;;7284843;32;20131;-57
2023/07/21 09:05:19;;;;;;;7.18;6.57;;;20.40;99.90;;;;;;7268062;32;20158;-57
2023/07/21 09:09:22;;;;;;;7.97;6.50;;;20.70;99.90;;;;;;7288162;32;20267;-57
2023/07/21 09:13:25;;;;;;;10.13;7.12;;;21.00;99.90;;;;;;7281670;32;20158;-56
2023/07/21 09:17:27;;;;;;;8.77;6.70;;;21.70;99.90;;;;;;7275697;32;20220;-57
2023/07/21 09:21:30;;;;;;;6.12;5.30;;;22.30;99.90;;;;;;7276162;32;20120;-57
2023/07/21 09:25:32;;;;;;;7.50;5.43;;;22.30;99.90;;;;;;7272013;32;20112;-57
2023/07/21 09:29:33;;;;;;;4.55;4.00;;;22.40;99.90;;;;;;7288191;32;20292;-57
2023/07/21 09:33:38;;;;;;;6.47;4.82;;;22.90;99.90;;;;;;7272883;32;20238;-58
2023/07/21 09:37:41;;;;;;;5.75;5.20;;;22.90;99.90;;;;;;7284992;32;20523;-57
2023/07/21 09:41:44;;;;;;;6.20;5.50;;;22.70;99.90;;;;;;7257217;32;20123;-57
2023/07/21 09:45:45;;;;;;;6.82;4.03;;;21.90;99.90;;;;;;7286379;32;20103;-57
2023/07/21 09:49:49;;;;;;;5.40;3.85;;;21.40;99.90;;;;;;7284499;32;20585;-57
2023/07/21 09:53:52;;;;;;;5.57;5.05;;;21.10;99.90;;;;;;7278054;32;20597;-57
2023/07/21 09:57:54;;;;;;;6.53;5.18;;;21.50;99.90;;;;;;7270040;32;20134;-57
2023/07/21 10:01:56;;;;;;;6.82;4.82;;;21.80;99.90;;;;;;7296799;32;35538;-57
2023/07/21 10:06:00;;;;;;;7.20;4.20;;;22.30;99.90;;;;;;7268401;32;20143;-57
2023/07/21 10:10:05;;;;;;;5.28;4.05;;;22.50;99.90;;;;;;7288337;32;20217;-57
2023/07/21 10:14:26;;;;;;;4.40;3.97;;;22.50;99.90;;;;;;7274933;32;20154;-57
2023/07/21 10:18:28;;;;;;;5.05;3.35;;;23.00;99.90;;;;;;7287317;32;20430;-57
2023/07/21 10:22:30;;;;;;;5.07;4.28;;;23.20;99.90;;;;;;7283953;32;20130;-57
2023/07/21 10:26:32;;;;;;;4.55;3.55;;;23.60;99.90;;;;;;7253191;32;20109;-57
2023/07/21 10:30:34;;;;;;;5.60;3.70;;;23.70;99.90;;;;;;7285553;32;20112;-57
2023/07/21 10:34:43;;;;;;;5.90;3.97;;;23.40;99.90;;;;;;7281834;32;20123;-58
2023/07/21 10:38:45;;;;;;;6.87;3.60;;;23.20;99.90;;;;;;7270309;32;20107;-57
2023/07/21 10:42:46;;;;;;;5.03;3.50;;;23.30;99.90;;;;;;7289846;32;20152;-57
2023/07/21 10:46:50;;;;;;;4.97;2.22;;;23.20;99.90;;;;;;7285314;32;20112;-57
2023/07/21 10:50:58;;;;;;;2.87;2.00;;;23.10;99.90;;;;;;7287480;32;20156;-57
2023/07/21 10:55:00;;;;;;;4.05;2.08;;;23.50;99.90;;;;;;7269616;32;20126;-57
2023/07/21 10:59:03;;;;;;;4.40;2.40;;;23.80;99.90;;;;;;7289246;32;20128;-57
2023/07/21 11:03:05;;;;;;;5.37;2.72;;;23.70;99.90;;;;;;7261122;32;20109;-57
2023/07/21 11:07:07;;;;;;;4.25;2.35;;;23.80;99.90;;;;;;7286214;32;20116;-57
2023/07/21 11:11:09;;;;;;;3.53;1.80;;;23.80;99.90;;;;;;7282664;32;20197;-57
2023/07/21 11:15:11;;;;;;;3.78;2.62;;;23.40;99.90;;;;;;7278475;32;20363;-56
2023/07/21 11:19:15;;;;;;;4.10;2.12;;;23.20;99.90;;;;;;7293266;32;20108;-57
2023/07/21 11:23:18;;;;;;;5.68;2.00;;;23.20;99.90;;;;;;7279805;32;20176;-57
2023/07/21 11:27:19;;;;;;;4.15;1.85;;;23.10;99.90;;;;;;7271628;32;20119;-57
2023/07/21 11:31:23;;;;;;;3.47;1.58;;;23.60;99.90;;;;;;7274224;32;20501;-57
2023/07/21 11:35:35;;;;;;;2.25;1.35;;;23.50;99.90;;;;;;7288934;32;20130;-57
2023/07/21 11:39:37;;;;;;;3.33;1.50;;;23.20;99.90;;;;;;7267064;32;20112;-57
2023/07/21 11:43:49;;;;;;;4.00;1.60;;;23.00;99.90;;;;;;7287072;32;20131;-57
2023/07/21 11:47:51;;;;;;;3.45;1.73;;;22.90;99.90;;;;;;7273846;32;20869;-58
2023/07/21 11:51:53;;;;;;;2.67;1.70;;;22.90;99.90;;;;;;7249768;32;20171;-57
2023/07/21 11:55:55;;;;;;;2.15;1.10;;;23.00;98.60;;;;;;7284771;32;20169;-55
2023/07/21 11:59:56;;;;;;;2.95;1.92;;;23.40;99.90;;;;;;7287149;32;20201;-58
2023/07/21 12:03:58;;;;;;;1.87;1.65;;;23.80;99.20;;;;;;7280641;32;20616;-58
2023/07/21 12:08:01;;;;;;;2.33;1.55;;;24.20;99.90;;;;;;7268046;32;20595;-57
2023/07/21 12:12:03;;;;;;;1.77;1.60;;;24.60;98.00;;;;;;7269022;32;20157;-58
2023/07/21 12:16:07;;;;;;;3.05;1.70;;;24.60;94.80;;;;;;7289493;32;20151;-58
2023/07/21 12:20:12;;;;;;;3.05;1.48;;;24.30;96.60;;;;;;7281109;32;20155;-58
2023/07/21 12:24:14;;;;;;;2.80;1.30;;;23.70;95.60;;;;;;7288182;32;20136;-57
2023/07/21 12:28:16;;;;;;;3.55;2.03;;;23.60;99.80;;;;;;7288553;32;20142;-58
2023/07/21 12:32:19;;;;;;;2.28;1.20;;;23.50;97.40;;;;;;7273811;32;20533;-58
2023/07/21 12:36:21;;;;;;;3.65;1.50;;;24.00;95.10;;;;;;7281847;32;20144;-59
2023/07/21 12:40:22;;;;;;;2.92;1.45;;;24.10;96.00;;;;;;7293038;32;20135;-58
2023/07/21 12:44:24;;;;;;;2.15;1.30;;;24.30;94.60;;;;;;7284724;32;20126;-57
2023/07/21 12:48:27;;;;;;;2.50;1.50;;;23.80;92.50;;;;;;7282128;32;20152;-57
2023/07/21 12:52:29;;;;;;;4.37;2.42;;;23.20;95.20;;;;;;7296452;32;20165;-57
2023/07/21 12:56:31;;;;;;;2.58;2.05;;;22.60;98.90;;;;;;7273124;32;20120;-57
2023/07/21 13:00:33;;;;;;;4.72;1.62;;;22.20;99.30;;;;;;7292276;32;20134;-58
2023/07/21 13:04:35;;;;;;;3.65;2.33;;;21.90;99.90;;;;;;7283115;32;20132;-57
2023/07/21 13:08:37;;;;;;;2.17;1.98;;;21.60;99.90;;;;;;7292787;32;20151;-57
2023/07/21 13:12:39;;;;;;;3.80;2.10;;;21.30;99.90;;;;;;7276307;32;20112;-58
2023/07/21 13:16:41;;;;;;;5.55;4.57;;;21.10;99.90;;;;;;7286129;32;20162;-59
2023/07/21 13:20:43;;;;;;;9.57;5.72;;;20.80;99.90;;;;;;7290734;32;20165;-58
2023/07/21 13:24:44;;;;;;;5.25;4.65;;;19.80;99.90;;;;;;7288683;32;20188;-59
2023/07/21 13:28:48;;;;;;;7.30;4.80;;;19.20;99.90;;;;;;7287111;32;20513;-58
2023/07/21 13:32:50;;;;;;;5.05;3.50;;;19.00;99.90;;;;;;7272379;32;20437;-58
2023/07/21 13:36:53;;;;;;;4.68;4.18;;;18.90;99.90;;;;;;7288186;32;20187;-58
2023/07/21 13:40:55;;;;;;;4.40;3.87;;;18.80;99.90;;;;;;7275775;32;20161;-58
2023/07/21 13:44:56;;;;;;;4.37;3.97;;;18.50;99.90;;;;;;7283100;32;20166;-58
2023/07/21 13:48:58;;;;;;;7.70;4.37;;;18.20;99.90;;;;;;7285995;32;20276;-57
2023/07/21 13:53:00;;;;;;;5.93;3.83;;;18.10;99.90;;;;;;7284998;32;20218;-59
2023/07/21 13:57:02;;;;;;;3.80;3.42;;;18.00;99.90;;;;;;7277053;32;20109;-58
2023/07/21 14:01:04;;;;;;;3.85;3.55;;;18.10;99.90;;;;;;7263484;32;20199;-57
2023/07/21 14:05:07;;;;;;;2.95;2.60;;;18.10;99.90;;;;;;7280413;32;20130;-58
2023/07/21 14:09:10;;;;;;;5.78;3.05;;;18.10;99.90;;;;;;7289957;32;20181;-57
2023/07/21 14:13:11;;;;;;;3.33;2.45;;;18.10;99.90;;;;;;7289040;32;20226;-57
2023/07/21 14:17:13;;;;;;;4.80;2.37;;;18.00;99.90;;;;;;7292060;32;20131;-57
2023/07/21 14:21:15;;;;;;;3.60;2.50;;;18.00;99.90;;;;;;7292185;32;20107;-57
2023/07/21 14:25:17;;;;;;;5.22;2.30;;;18.00;99.90;;;;;;7283645;32;20521;-58
2023/07/21 14:29:19;;;;;;;2.65;2.17;;;18.00;99.90;;;;;;7293927;32;20164;-55
2023/07/21 14:33:21;;;;;;;3.08;1.98;;;17.90;99.90;;;;;;7288990;32;20133;-57
2023/07/21 14:37:24;;;;;;;1.67;1.50;;;18.00;99.90;;;;;;7262161;32;20183;-58
2023/07/21 14:41:26;;;;;;;1.80;1.60;;;18.20;99.90;;;;;;7270239;32;20146;-58
2023/07/21 14:45:28;;;;;;;2.53;1.67;;;18.40;99.90;;;;;;7274187;32;20146;-56
2023/07/21 14:49:30;;;;;;;2.03;1.50;;;18.40;99.90;;;;;;7278688;32;20108;-57
2023/07/21 14:53:32;;;;;;;1.73;1.42;;;18.50;99.90;;;;;;7290780;32;20222;-58
2023/07/21 14:57:33;;;;;;;2.05;1.20;;;18.40;99.90;;;;;;7271363;32;20665;-57
2023/07/21 15:01:35;;;;;;;1.48;1.12;;;18.40;99.90;;;;;;7269215;32;20574;-57
2023/07/21 15:05:37;;;;;;;2.22;1.30;;;18.40;99.90;;;;;;7276791;32;20134;-57
2023/07/21 15:09:40;;;;;;;1.70;1.33;;;18.30;99.90;;;;;;7276824;32;20131;-57
2023/07/21 15:13:41;;;;;;;2.80;1.30;;;18.30;99.90;;;;;;7278459;32;20318;-56
2023/07/21 15:17:43;;;;;;;1.58;1.20;;;18.50;99.90;;;;;;7295015;32;20135;-57
2023/07/21 15:21:45;;;;;;;1.80;1.23;;;18.70;99.90;;;;;;7266952;32;20116;-56
2023/07/21 15:25:47;;;;;;;1.60;1.33;;;18.80;99.90;;;;;;7293809;32;20152;-57
2023/07/21 15:29:49;;;;;;;2.00;1.85;;;18.80;99.90;;;;;;7289206;32;20119;-57
2023/07/21 15:33:51;;;;;;;1.55;1.40;;;18.70;99.90;;;;;;7290512;32;20127;-56
2023/07/21 15:37:53;;;;;;;3.47;1.70;;;18.60;99.90;;;;;;7278374;32;20173;-57
2023/07/21 15:41:55;;;;;;;2.20;1.87;;;18.60;99.90;;;;;;7275599;32;20446;-57
2023/07/21 15:45:57;;;;;;;2.20;1.87;;;18.60;99.90;;;;;;7277100;32;20103;-57
2023/07/21 15:50:09;;;;;;;2.75;2.00;;;18.70;99.90;;;;;;7285363;32;20127;-57
2023/07/21 15:54:10;;;;;;;2.50;2.20;;;18.70;99.90;;;;;;7256987;32;20739;-56
2023/07/21 15:58:18;;;;;;;3.33;2.20;;;18.70;99.90;;;;;;7290753;32;20142;-57
2023/07/21 16:02:20;;;;;;;2.50;2.22;;;18.80;99.90;;;;;;7270796;32;20105;-57
2023/07/21 16:06:22;;;;;;;3.67;2.00;;;19.00;99.90;;;;;;7289060;32;20722;-56
2023/07/21 16:10:24;;;;;;;3.33;3.03;;;19.40;99.90;;;;;;7273936;32;20120;-56
2023/07/21 16:14:26;;;;;;;5.55;5.00;;;19.70;99.90;;;;;;7262342;32;20146;-56
2023/07/21 16:18:28;;;;;;;4.47;4.07;;;19.70;99.90;;;;;;7293741;32;20190;-58
2023/07/21 16:22:30;;;;;;;5.57;4.80;;;19.70;99.90;;;;;;7267310;32;20170;-57
2023/07/21 16:26:32;;;;;;;8.20;5.80;;;19.80;99.90;;;;;;7281285;32;20738;-56
2023/07/21 16:30:37;;;;;;;5.53;4.32;;;19.90;99.90;;;;;;7283667;32;20132;-56
2023/07/21 16:34:39;;;;;;;7.53;3.75;;;19.80;99.90;;;;;;7270369;32;20134;-56
2023/07/21 16:38:41;;;;;;;5.60;4.50;;;19.90;99.90;;;;;;7287790;32;20144;-56
2023/07/21 16:42:43;;;;;;;6.85;3.80;;;19.90;99.90;;;;;;7283198;32;20249;-56
2023/07/21 16:46:45;;;;;;;5.45;2.85;;;19.80;99.90;;;;;;7277862;32;20122;-56
2023/07/21 16:50:47;;;;;;;5.65;2.17;;;19.50;99.90;;;;;;7283749;32;20364;-56
2023/07/21 16:54:49;;;;;;;2.33;1.50;;;19.70;99.90;;;;;;7253701;32;20497;-56
2023/07/21 16:58:51;;;;;;;1.77;1.50;;;19.60;99.90;;;;;;7275552;32;20136;-56
2023/07/21 17:02:52;;;;;;;3.70;1.87;;;19.40;99.90;;;;;;7293069;32;20191;-57
2023/07/21 17:06:55;;;;;;;4.87;1.70;;;19.40;99.90;;;;;;7282822;32;20152;-56
2023/07/21 17:10:59;;;;;;;3.62;2.20;;;19.20;99.90;;;;;;7288316;32;20251;-56
2023/07/21 17:15:00;;;;;;;2.95;2.20;;;19.20;99.90;;;;;;7276238;32;20477;-56
2023/07/21 17:19:02;;;;;;;5.37;2.28;;;19.30;99.90;;;;;;7259151;32;20169;-56
2023/07/21 17:23:04;;;;;;;3.33;2.20;;;19.40;99.90;;;;;;7293323;32;20111;-56
2023/07/21 17:27:06;;;;;;;5.15;2.30;;;19.40;99.90;;;;;;7292020;32;20674;-56
2023/07/21 17:31:08;;;;;;;3.90;2.35;;;19.20;99.90;;;;;;7285727;32;20111;-57
2023/07/21 17:35:11;;;;;;;5.18;2.67;;;19.00;99.90;;;;;;7288680;32;20137;-56
2023/07/21 17:39:13;;;;;;;5.12;2.58;;;19.20;99.90;;;;;;7293018;32;20331;-57
2023/07/21 17:43:15;;;;;;;4.32;2.33;;;19.10;99.90;;;;;;7283590;32;20150;-57
2023/07/21 17:47:17;;;;;;;4.85;2.95;;;18.90;99.90;;;;;;7287951;32;20251;-56
2023/07/21 17:51:19;;;;;;;4.43;2.70;;;18.80;99.90;;;;;;7285683;32;20131;-56
2023/07/21 17:55:20;;;;;;;4.18;2.85;;;18.80;99.90;;;;;;7285923;32;20242;-56
2023/07/21 17:59:22;;;;;;;6.05;3.25;;;18.80;99.90;;;;;;7288158;32;20259;-56
2023/07/21 18:03:24;;;;;;;4.85;3.67;;;18.80;99.90;;;;;;7290056;32;20158;-56
2023/07/21 18:07:26;;;;;;;4.15;3.42;;;18.80;99.90;;;;;;7288012;32;20147;-56
2023/07/21 18:11:28;;;;;;;5.80;3.50;;;18.80;99.90;;;;;;7269457;32;20104;-56
2023/07/21 18:15:35;;;;;;;4.57;3.42;;;18.90;99.90;;;;;;7274869;32;20173;-56
2023/07/21 18:19:36;;;;;;;7.68;4.62;;;19.00;99.90;;;;;;7287547;32;20108;-56
2023/07/21 18:23:38;;;;;;;5.37;3.37;;;19.10;99.90;;;;;;7286411;32;20135;-56
2023/07/21 18:27:40;;;;;;;6.05;4.68;;;18.90;99.90;;;;;;7286711;32;20156;-56
2023/07/21 18:31:42;;;;;;;5.72;4.50;;;18.70;99.90;;;;;;7286165;32;20118;-56
2023/07/21 18:35:50;;;;;;;5.75;4.50;;;18.70;99.90;;;;;;7296049;32;20128;-56
2023/07/21 18:39:54;;;;;;;8.30;4.57;;;18.70;99.90;;;;;;7270126;32;20528;-56
2023/07/21 18:43:56;;;;;;;9.05;4.32;;;18.50;99.90;;;;;;7286290;32;20107;-56
2023/07/21 18:47:58;;;;;;;6.18;4.25;;;18.50;99.90;;;;;;7283129;32;20123;-57
2023/07/21 18:52:00;;;;;;;7.25;4.10;;;18.30;99.90;;;;;;7276195;32;20581;-57
2023/07/21 18:56:04;;;;;;;6.32;4.20;;;18.10;99.90;;;;;;7267123;32;20120;-57
2023/07/21 19:00:09;;;;;;;5.25;4.35;;;18.10;99.90;;;;;;7277113;32;20567;-57
2023/07/21 19:04:11;;;;;;;7.70;5.05;;;18.00;99.90;;;;;;7278467;32;20161;-57
2023/07/21 19:08:13;;;;;;;5.45;4.20;;;17.70;99.90;;;;;;7288638;32;20233;-57
2023/07/21 19:12:15;;;;;;;5.45;4.30;;;17.60;99.90;;;;;;7272382;32;20112;-57
2023/07/21 19:16:18;;;;;;;6.18;4.75;;;17.60;99.90;;;;;;7284935;32;20700;-57
2023/07/21 19:20:20;;;;;;;5.85;4.53;;;17.50;99.90;;;;;;7278988;32;20481;-57
2023/07/21 19:24:22;;;;;;;7.78;4.20;;;17.30;99.90;;;;;;7284948;32;20109;-56
2023/07/21 19:28:24;;;;;;;6.93;3.70;;;17.30;99.90;;;;;;7284925;32;20179;-56
2023/07/21 19:32:25;;;;;;;7.55;4.22;;;17.10;99.90;;;;;;7278874;32;20738;-57
2023/07/21 19:36:28;;;;;;;4.93;3.75;;;17.00;99.90;;;;;;7268754;32;20107;-57
2023/07/21 19:40:29;;;;;;;5.53;4.43;;;16.90;99.90;;;;;;7282889;32;20717;-57
2023/07/21 19:44:38;;;;;;;5.97;4.12;;;16.80;99.90;;;;;;7264808;32;20197;-56
2023/07/21 19:48:40;;;;;;;6.12;4.18;;;16.80;99.90;;;;;;7266464;32;20206;-54
2023/07/21 19:52:42;;;;;;;9.23;4.32;;;16.60;99.90;;;;;;7271209;32;20457;-56
2023/07/21 19:56:46;;;;;;;6.35;4.93;;;16.60;99.90;;;;;;7287253;32;20818;-56
2023/07/21 20:00:48;;;;;;;6.37;4.43;;;16.60;99.90;;;;;;7272454;32;20124;-56
2023/07/21 20:04:50;;;;;;;8.18;4.53;;;16.50;99.90;;;;;;7283261;32;20131;-57
2023/07/21 20:08:52;;;;;;;9.73;4.85;;;16.50;99.90;;;;;;7288955;32;20122;-57
2023/07/21 20:12:54;;;;;;;7.40;4.95;;;16.40;99.90;;;;;;7281513;32;20285;-56
2023/07/21 20:16:56;;;;;;;9.32;4.70;;;16.30;99.90;;;;;;7290990;32;20136;-56
2023/07/21 20:20:58;;;;;;;6.85;4.57;;;16.20;99.90;;;;;;7280233;32;20123;-57
2023/07/21 20:25:00;;;;;;;6.70;4.20;;;16.10;99.90;;;;;;7270445;32;20131;-56
2023/07/21 20:29:03;;;;;;;6.85;4.40;;;16.00;99.90;;;;;;7273538;32;20527;-56
2023/07/21 20:33:09;;;;;;;6.10;3.92;;;15.90;99.90;;;;;;7274655;32;20101;-57
2023/07/21 20:37:11;;;;;;;7.85;4.55;;;15.80;99.90;;;;;;7265454;32;20474;-57
2023/07/21 20:41:13;;;;;;;7.53;4.32;;;15.50;99.90;;;;;;7277943;32;20104;-56
2023/07/21 20:45:14;;;;;;;8.35;4.90;;;15.30;99.90;;;;;;7289631;32;20518;-56
2023/07/21 20:49:16;;;;;;;8.85;5.32;;;15.10;99.90;;;;;;7287866;32;20119;-55
2023/07/21 20:53:18;;;;;;;5.97;4.82;;;15.10;99.90;;;;;;7275766;32;20218;-56